Portada
METAR-TAF:

METAR-TAF

Aeroports :

Eureka, Nunavut, Canadà

latitud: 79-59N, longitud: 085-56W, altitud: 10 m

Observació

L'informe es va fer fa 14 minuts, a les 10:00 UTC
Vent 2 kt del Nord/Nord-Est
Temperatura -5°C
Humitat 93%
Pressió 1022 hPa
Visibilitat: 3.2 km
Núvols disperses a una alçada de 300 ft
Cel cobert a una alçada de 900 ft
neu

METAR: CWEU 161000Z 02002KT 2SM -SN SCT003 OVC009 M05/M06 A3019 RMK SN1ST3SC4 VIS VRB 11/2-21/2 SLP226

Hora: 05:14 (10:14 UTC)


TAF: manca

Observacions i pronòstics meteorològics de més de 4000 aeroports (METAR i TAF).

Les estacions disponibles són els punts grocs i vermells al mapa.

Posi el ratolí al punt desitjat per veure el nom de l'estació.

Feu clic per veure les observacions i els pronòstics meteorològics.

Per canviar el mapa: feu clic els botons verds amb una creu de color negre per apropar; al botó verd amb un guió per allunyar la imatge; o en les fletxes verdes per a mapes adjacents.


METAR-TAF: